createdAt,value
2018-08-10T00:00:22.756Z,99.90
2018-08-10T00:04:27.143Z,99.90
2018-08-10T00:08:31.364Z,99.90
2018-08-10T00:12:35.672Z,99.90
2018-08-10T00:16:39.958Z,99.90
2018-08-10T00:20:44.208Z,99.90
2018-08-10T00:24:48.467Z,99.90
2018-08-10T00:28:52.770Z,99.90
2018-08-10T00:32:57.029Z,99.90
2018-08-10T00:37:01.301Z,99.90
2018-08-10T00:41:05.656Z,99.90
2018-08-10T00:45:11.057Z,99.90
2018-08-10T00:49:15.401Z,99.90
2018-08-10T00:53:19.638Z,99.90
2018-08-10T00:57:23.939Z,99.90
2018-08-10T01:01:28.264Z,99.90
2018-08-10T01:05:32.476Z,99.90
2018-08-10T01:09:36.804Z,99.90
2018-08-10T01:13:41.137Z,99.90
2018-08-10T01:17:46.164Z,99.90
2018-08-10T01:21:50.462Z,99.90
2018-08-10T01:25:54.834Z,99.90
2018-08-10T01:29:59.122Z,99.90
2018-08-10T01:34:03.440Z,99.90
2018-08-10T01:38:07.665Z,99.90
2018-08-10T01:42:11.932Z,99.90
2018-08-10T01:46:16.324Z,99.90
2018-08-10T01:50:20.593Z,99.90
2018-08-10T01:54:24.957Z,99.90
2018-08-10T01:58:29.162Z,99.90
2018-08-10T02:02:33.470Z,99.90
2018-08-10T02:06:37.783Z,99.90
2018-08-10T02:10:42.084Z,99.90
2018-08-10T02:14:46.300Z,99.90
2018-08-10T02:18:50.603Z,99.90
2018-08-10T02:22:54.937Z,99.90
2018-08-10T02:26:59.199Z,99.90
2018-08-10T02:31:03.503Z,99.90
2018-08-10T02:35:08.226Z,99.90
2018-08-10T02:39:13.286Z,99.90
2018-08-10T02:43:17.559Z,99.90
2018-08-10T02:47:23.711Z,99.90
2018-08-10T02:51:27.965Z,99.90
2018-08-10T02:55:32.287Z,99.90
2018-08-10T02:59:36.530Z,99.90
2018-08-10T03:03:40.849Z,99.90
2018-08-10T03:07:45.117Z,99.90
2018-08-10T03:11:49.396Z,99.90
2018-08-10T03:15:53.657Z,99.90
2018-08-10T03:19:57.902Z,99.90
2018-08-10T03:24:02.253Z,99.90
2018-08-10T03:28:06.470Z,99.90
2018-08-10T03:32:10.734Z,99.90
2018-08-10T03:36:14.987Z,99.90
2018-08-10T03:40:19.697Z,99.90
2018-08-10T03:44:23.925Z,99.90
2018-08-10T03:48:28.222Z,99.90
2018-08-10T03:52:32.454Z,99.90
2018-08-10T03:56:36.671Z,99.90
2018-08-10T04:00:40.918Z,99.90
2018-08-10T04:04:45.166Z,99.90
2018-08-10T04:08:49.392Z,99.90
2018-08-10T04:12:53.732Z,99.90
2018-08-10T04:16:57.984Z,99.90
2018-08-10T04:21:02.218Z,99.90
2018-08-10T04:25:06.592Z,99.90
2018-08-10T04:29:10.857Z,99.90
2018-08-10T04:33:15.333Z,99.90
2018-08-10T04:37:19.837Z,99.90
2018-08-10T04:41:24.105Z,99.90
2018-08-10T04:45:28.583Z,99.90
2018-08-10T04:49:32.883Z,99.90
2018-08-10T04:53:37.139Z,99.90
2018-08-10T04:57:41.823Z,99.90
2018-08-10T05:01:46.004Z,99.90
2018-08-10T05:05:50.257Z,99.90
2018-08-10T05:09:57.154Z,99.90
2018-08-10T05:14:01.309Z,99.90
2018-08-10T05:18:05.732Z,99.90
2018-08-10T05:22:09.996Z,99.90
2018-08-10T05:26:14.288Z,99.90
2018-08-10T05:30:18.851Z,99.90
2018-08-10T05:34:23.196Z,99.90
2018-08-10T05:38:27.449Z,99.90
2018-08-10T05:42:31.763Z,99.90
2018-08-10T05:46:36.063Z,99.90
2018-08-10T05:50:40.266Z,99.90
2018-08-10T05:54:44.482Z,99.90
2018-08-10T05:58:49.776Z,99.90
2018-08-10T06:02:54.013Z,99.90
2018-08-10T06:06:58.310Z,99.90
2018-08-10T06:11:02.535Z,99.90
2018-08-10T06:15:08.128Z,99.90
2018-08-10T06:19:12.349Z,99.90
2018-08-10T06:23:16.693Z,99.90
2018-08-10T06:27:20.896Z,99.80
2018-08-10T06:31:25.174Z,99.70
2018-08-10T06:35:29.437Z,98.30
2018-08-10T06:39:33.749Z,98.60
2018-08-10T06:43:37.955Z,97.30
2018-08-10T06:47:42.188Z,94.40
2018-08-10T06:51:46.358Z,90.10
2018-08-10T06:55:50.698Z,87.40
2018-08-10T06:59:54.916Z,84.50
2018-08-10T07:03:59.162Z,77.00
2018-08-10T07:08:03.405Z,79.80
2018-08-10T07:12:07.657Z,73.20
2018-08-10T07:16:11.853Z,78.50
2018-08-10T07:20:16.171Z,76.10
2018-08-10T07:24:20.424Z,76.30
2018-08-10T07:28:24.619Z,77.10
2018-08-10T07:32:28.847Z,76.30
2018-08-10T07:36:33.139Z,69.70
2018-08-10T07:40:37.433Z,73.00
2018-08-10T07:44:41.664Z,66.90
2018-08-10T07:48:48.860Z,63.70
2018-08-10T07:52:53.085Z,61.80
2018-08-10T07:56:57.296Z,58.80
2018-08-10T08:01:01.501Z,59.50
2018-08-10T08:05:07.018Z,59.50
2018-08-10T08:09:12.915Z,58.90
2018-08-10T08:13:17.185Z,58.80
2018-08-10T08:17:21.408Z,58.10
2018-08-10T08:21:25.677Z,58.60
2018-08-10T08:25:30.089Z,57.30
2018-08-10T08:29:34.828Z,57.20
2018-08-10T08:33:50.052Z,54.80
2018-08-10T08:38:00.839Z,51.80
2018-08-10T08:42:05.184Z,49.40
2018-08-10T08:46:10.507Z,48.50
2018-08-10T08:50:14.724Z,50.50
2018-08-10T08:56:31.487Z,52.20
2018-08-10T09:00:36.099Z,52.20
2018-08-10T09:04:53.416Z,49.50
2018-08-10T09:09:08.968Z,49.30
2018-08-10T09:13:13.220Z,51.10
2018-08-10T09:17:17.798Z,49.50
2018-08-10T09:21:21.943Z,51.00
2018-08-10T09:25:26.246Z,51.10
2018-08-10T09:29:30.664Z,53.10
2018-08-10T09:33:35.427Z,53.40
2018-08-10T09:37:40.597Z,53.40
2018-08-10T09:41:45.955Z,53.10
2018-08-10T09:45:50.473Z,53.10
2018-08-10T09:49:55.731Z,53.30
2018-08-10T09:54:02.304Z,52.00
2018-08-10T09:58:11.699Z,49.10
2018-08-10T10:02:19.548Z,47.90
2018-08-10T10:06:25.027Z,48.10
2018-08-10T10:10:30.183Z,45.80
2018-08-10T10:14:34.880Z,47.40
2018-08-10T10:18:40.032Z,46.50
2018-08-10T10:22:45.999Z,44.80
2018-08-10T10:26:52.396Z,46.50
2018-08-10T10:30:58.525Z,44.80
2018-08-10T10:35:05.063Z,43.30
2018-08-10T10:39:13.873Z,42.70
2018-08-10T10:43:19.367Z,42.90
2018-08-10T10:47:24.681Z,42.80
2018-08-10T10:51:29.513Z,45.20
2018-08-10T10:55:35.464Z,43.40
2018-08-10T10:59:40.420Z,42.50
2018-08-10T11:03:45.791Z,38.90
2018-08-10T11:07:51.145Z,42.10
2018-08-10T11:11:56.572Z,40.00
2018-08-10T11:16:02.414Z,40.60
2018-08-10T11:20:08.301Z,43.70
2018-08-10T11:24:14.004Z,45.60
2018-08-10T11:28:19.164Z,47.90
2018-08-10T11:32:23.815Z,48.70
2018-08-10T11:36:29.277Z,50.00
2018-08-10T11:40:34.561Z,44.80
2018-08-10T11:44:39.309Z,45.90
2018-08-10T11:48:45.360Z,47.50
2018-08-10T11:52:50.791Z,49.40
2018-08-10T11:56:56.315Z,50.90
2018-08-10T12:01:01.932Z,50.70
2018-08-10T12:05:08.870Z,47.40
2018-08-10T12:09:13.874Z,46.10
2018-08-10T12:13:19.163Z,44.90
2018-08-10T12:17:23.767Z,42.00
2018-08-10T12:21:28.227Z,41.90
2018-08-10T12:25:33.648Z,42.00
2018-08-10T12:29:39.201Z,40.00
2018-08-10T12:33:45.542Z,36.30
2018-08-10T12:37:50.955Z,40.40
2018-08-10T12:41:57.567Z,39.00
2018-08-10T12:46:03.964Z,41.80
2018-08-10T12:50:10.978Z,45.20
2018-08-10T12:54:16.048Z,48.10
2018-08-10T12:58:21.240Z,50.10
2018-08-10T13:02:28.309Z,50.90
2018-08-10T13:06:33.233Z,52.00
2018-08-10T13:10:39.312Z,52.40
2018-08-10T13:14:45.395Z,53.50
2018-08-10T13:18:50.037Z,55.50
2018-08-10T13:22:54.932Z,55.20
2018-08-10T13:26:59.587Z,56.10
2018-08-10T13:31:04.919Z,64.10
2018-08-10T13:35:09.304Z,70.80
2018-08-10T13:39:16.512Z,74.30
2018-08-10T13:43:20.842Z,77.30
2018-08-10T13:47:25.639Z,84.00
2018-08-10T13:51:30.089Z,88.30
2018-08-10T13:55:38.474Z,90.10
2018-08-10T13:59:43.535Z,92.90
2018-08-10T14:03:48.239Z,94.50
2018-08-10T14:07:53.306Z,96.30
2018-08-10T14:11:57.743Z,99.10
2018-08-10T14:16:02.327Z,99.90
2018-08-10T14:20:08.113Z,99.90
2018-08-10T14:24:13.540Z,99.90
2018-08-10T14:28:17.816Z,99.90
2018-08-10T14:32:22.307Z,99.90
2018-08-10T14:36:26.939Z,99.90
2018-08-10T14:40:31.282Z,96.10
2018-08-10T14:44:39.393Z,92.60
2018-08-10T14:48:44.295Z,94.40
2018-08-10T14:52:49.389Z,92.60
2018-08-10T14:56:54.719Z,92.50
2018-08-10T15:00:59.612Z,93.50
2018-08-10T15:05:05.558Z,98.10
2018-08-10T15:09:13.165Z,98.40
2018-08-10T15:13:22.629Z,99.90
2018-08-10T15:17:28.132Z,97.30
2018-08-10T15:21:36.434Z,98.10
2018-08-10T15:25:41.456Z,99.20
2018-08-10T15:29:46.835Z,94.00
2018-08-10T15:33:52.149Z,93.90
2018-08-10T15:37:57.149Z,94.60
2018-08-10T15:42:02.303Z,99.90
2018-08-10T15:46:07.441Z,99.90
2018-08-10T15:50:13.009Z,99.00
2018-08-10T15:54:18.080Z,99.90
2018-08-10T15:58:22.898Z,99.90
2018-08-10T16:02:28.486Z,99.90
2018-08-10T16:06:36.664Z,99.90
2018-08-10T16:10:44.317Z,99.90
2018-08-10T16:14:48.576Z,99.90
2018-08-10T16:19:00.679Z,99.90
2018-08-10T16:23:04.979Z,99.90
2018-08-10T16:27:09.825Z,99.90
2018-08-10T16:31:14.189Z,99.90
2018-08-10T16:35:18.421Z,99.90
2018-08-10T16:39:22.729Z,99.90
2018-08-10T16:43:27.024Z,99.90
2018-08-10T16:47:32.059Z,99.90
2018-08-10T16:51:36.449Z,99.90
2018-08-10T16:55:40.727Z,99.90
2018-08-10T16:59:45.079Z,99.90
2018-08-10T17:03:49.353Z,99.90
2018-08-10T17:07:54.124Z,99.90
2018-08-10T17:11:58.404Z,99.90
2018-08-10T17:16:03.029Z,99.90
2018-08-10T17:20:07.569Z,99.90
2018-08-10T17:24:11.848Z,99.90
2018-08-10T17:28:16.131Z,99.90
2018-08-10T17:32:20.540Z,99.90
2018-08-10T17:36:24.776Z,99.90
2018-08-10T17:40:29.010Z,99.90
2018-08-10T17:44:36.165Z,99.90
2018-08-10T17:48:41.130Z,99.90
2018-08-10T17:52:46.728Z,99.90
2018-08-10T17:56:51.912Z,99.90
2018-08-10T18:00:57.281Z,99.90
2018-08-10T18:05:01.594Z,99.90
2018-08-10T18:09:10.942Z,99.90
2018-08-10T18:13:16.487Z,99.90
2018-08-10T18:17:21.528Z,99.90
2018-08-10T18:21:26.748Z,99.90
2018-08-10T18:25:31.498Z,99.90
2018-08-10T18:29:36.386Z,99.90
2018-08-10T18:33:41.400Z,99.90
2018-08-10T18:37:47.153Z,99.90
2018-08-10T18:41:51.497Z,99.90
2018-08-10T18:45:55.877Z,99.90
2018-08-10T18:50:00.154Z,99.90
2018-08-10T18:54:05.709Z,99.90
2018-08-10T18:58:10.696Z,99.90
2018-08-10T19:02:15.435Z,99.90
2018-08-10T19:06:20.742Z,99.90
2018-08-10T19:10:27.031Z,99.90
2018-08-10T19:14:31.941Z,99.90
2018-08-10T19:18:36.768Z,99.90
2018-08-10T19:22:41.588Z,99.90
2018-08-10T19:26:47.004Z,99.90
2018-08-10T19:30:51.919Z,99.90
2018-08-10T19:34:56.765Z,99.90
2018-08-10T19:39:01.010Z,99.90
2018-08-10T19:43:05.790Z,99.90
2018-08-10T19:47:10.925Z,99.90
2018-08-10T19:51:15.558Z,99.90
2018-08-10T19:55:20.561Z,99.90
2018-08-10T19:59:25.087Z,99.90
2018-08-10T20:03:29.842Z,99.90
2018-08-10T20:07:34.280Z,99.90
2018-08-10T20:11:39.697Z,99.90
2018-08-10T20:15:44.613Z,99.90
2018-08-10T20:19:49.094Z,99.90
2018-08-10T20:23:53.698Z,99.90
2018-08-10T20:28:00.314Z,99.90
2018-08-10T20:32:05.275Z,99.90
2018-08-10T20:36:10.075Z,99.90
2018-08-10T20:40:17.229Z,99.90
2018-08-10T20:44:22.625Z,99.90
2018-08-10T20:48:27.543Z,99.90
2018-08-10T20:52:32.100Z,99.90
2018-08-10T20:56:36.598Z,99.90
2018-08-10T21:00:41.780Z,99.90
2018-08-10T21:04:45.981Z,99.90
2018-08-10T21:08:50.390Z,99.90
2018-08-10T21:12:54.800Z,99.90
2018-08-10T21:16:59.437Z,99.90
2018-08-10T21:21:03.835Z,99.90
2018-08-10T21:25:09.017Z,99.90
2018-08-10T21:29:13.293Z,99.90
2018-08-10T21:33:17.716Z,99.90
2018-08-10T21:37:21.980Z,99.90
2018-08-10T21:41:26.572Z,99.90
2018-08-10T21:45:30.848Z,99.90
2018-08-10T21:49:35.233Z,99.90
2018-08-10T21:53:39.557Z,99.90
2018-08-10T21:57:43.754Z,99.90
2018-08-10T22:01:48.088Z,99.90
2018-08-10T22:05:52.399Z,99.90
2018-08-10T22:09:56.762Z,99.90
2018-08-10T22:14:06.155Z,99.90
2018-08-10T22:18:15.681Z,99.90
2018-08-10T22:22:19.938Z,99.90
2018-08-10T22:26:24.321Z,99.90
2018-08-10T22:30:28.836Z,99.90
2018-08-10T22:34:33.176Z,99.90
2018-08-10T22:38:37.420Z,99.90
2018-08-10T22:42:41.735Z,99.90
2018-08-10T22:46:45.968Z,99.90
2018-08-10T22:50:50.300Z,99.90
2018-08-10T22:54:54.557Z,99.90
2018-08-10T22:58:58.854Z,99.90
2018-08-10T23:03:03.082Z,99.90
2018-08-10T23:07:07.499Z,99.90
2018-08-10T23:11:11.769Z,99.90
2018-08-10T23:15:16.129Z,99.90
2018-08-10T23:19:20.358Z,99.90
2018-08-10T23:23:24.795Z,99.90
2018-08-10T23:27:29.015Z,99.90
2018-08-10T23:31:33.490Z,99.90
2018-08-10T23:35:37.760Z,99.90
2018-08-10T23:39:42.235Z,99.90
2018-08-10T23:43:46.481Z,99.90
2018-08-10T23:47:50.926Z,99.90
2018-08-10T23:51:55.256Z,99.90
2018-08-10T23:55:59.573Z,99.90
